Time;durP1;ratioP1;P1;durP2;ratioP2;P2;SDS_P1;SDS_P2;PMS_P1;PMS_P2;Temp;Humidity;BMP_temperature;BMP_pressure;BME280_temperature;BME280_humidity;BME280_pressure;Samples;Min_cycle;Max_cycle;Signal;HPM_P1;HPM_P2
2022/01/30 00:00:08;;;;;;;17.47;3.50;;;6.50;25.00;;;;;;5116433;28;20952;-69
2022/01/30 00:02:35;;;;;;;18.00;3.40;;;6.40;99.90;;;;;;5117141;28;20463;-69
2022/01/30 00:05:01;;;;;;;15.53;3.83;;;6.40;1.00;;;;;;5116634;28;20822;-69
2022/01/30 00:07:28;;;;;;;8.07;2.53;;;6.40;1.00;;;;;;5116638;28;20463;-69
2022/01/30 00:09:55;;;;;;;15.27;3.30;;;6.20;99.90;;;;;;5115882;28;20913;-70
2022/01/30 00:12:31;;;;;;;15.43;3.30;;;6.20;1.00;;;;;;5116306;28;20492;-70
2022/01/30 00:14:58;;;;;;;9.20;2.33;;;6.20;1.00;;;;;;5116208;28;20501;-69
2022/01/30 00:17:33;;;;;;;12.20;3.40;;;6.20;99.90;;;;;;5116242;28;20456;-70
2022/01/30 00:20:05;;;;;;;8.20;3.20;;;6.20;99.90;;;;;;5116354;27;20463;-70
2022/01/30 00:22:46;;;;;;;14.80;3.70;;;6.10;1.00;;;;;;5116271;28;20758;-70
2022/01/30 00:25:16;;;;;;;14.73;3.03;;;6.20;1.00;;;;;;5116159;28;20447;-71
2022/01/30 00:27:50;;;;;;;14.73;3.13;;;6.20;99.90;;;;;;5117255;28;20773;-70
2022/01/30 00:30:18;;;;;;;13.50;3.00;;;6.20;1.00;;;;;;5116202;28;20776;-69
2022/01/30 00:32:45;;;;;;;15.20;4.00;;;6.30;99.90;;;;;;5116205;28;20560;-70
2022/01/30 00:35:13;;;;;;;17.20;3.67;;;6.30;83.50;;;;;;5116136;28;20457;-70
2022/01/30 00:37:42;;;;;;;11.87;3.20;;;6.40;1.00;;;;;;5115700;28;20484;-70
2022/01/30 00:40:10;;;;;;;20.00;3.47;;;6.40;99.90;;;;;;5116128;27;20463;-70
2022/01/30 00:42:37;;;;;;;13.30;3.50;;;6.50;9.20;;;;;;5116239;28;20509;-70
2022/01/30 00:45:07;;;;;;;22.50;3.70;;;6.60;13.60;;;;;;5115966;28;20457;-68
2022/01/30 00:47:33;;;;;;;18.40;3.80;;;6.60;1.00;;;;;;5115440;28;20503;-70
2022/01/30 00:50:00;;;;;;;12.03;3.17;;;6.60;1.00;;;;;;5115541;28;20459;-70
2022/01/30 00:52:27;;;;;;;16.47;3.10;;;6.60;99.90;;;;;;5115837;28;20463;-70
2022/01/30 00:54:56;;;;;;;12.17;2.70;;;6.60;1.00;;;;;;5115977;28;20778;-68
2022/01/30 00:57:22;;;;;;;10.60;2.13;;;6.60;1.00;;;;;;5115839;28;20547;-69
2022/01/30 00:59:50;;;;;;;15.53;3.20;;;6.60;1.00;;;;;;5115515;28;20476;-69
2022/01/30 01:02:18;;;;;;;7.90;3.30;;;6.50;1.00;;;;;;5115512;28;20978;-70
2022/01/30 01:04:45;;;;;;;15.10;2.67;;;6.40;99.90;;;;;;5115768;28;20460;-69
2022/01/30 01:07:18;;;;;;;11.80;3.17;;;6.30;1.00;;;;;;5115051;28;20462;-70
2022/01/30 01:09:55;;;;;;;12.00;3.30;;;6.30;99.90;;;;;;5115674;28;20803;-69
2022/01/30 01:23:26;;;;;;;14.03;3.03;;;6.50;1.00;;;;;;5115098;28;20420;-68
2022/01/30 01:25:52;;;;;;;10.73;3.30;;;6.60;1.00;;;;;;5115489;28;20462;-68
2022/01/30 01:28:19;;;;;;;10.83;3.00;;;6.60;99.90;;;;;;5115156;28;20482;-68
2022/01/30 01:30:46;;;;;;;12.27;2.80;;;6.60;99.90;;;;;;5115232;28;20457;-69
2022/01/30 01:33:15;;;;;;;13.77;2.70;;;6.70;99.90;;;;;;5115265;28;20491;-70
2022/01/30 01:35:41;;;;;;;12.63;2.70;;;6.70;97.20;;;;;;5115191;28;20470;-68
2022/01/30 01:38:11;;;;;;;8.90;3.60;;;6.80;30.50;;;;;;5115075;28;20516;-68
2022/01/30 01:40:39;;;;;;;11.30;2.37;;;6.80;1.00;;;;;;5115161;28;20456;-69
2022/01/30 01:43:08;;;;;;;17.63;3.33;;;6.80;1.00;;;;;;5114842;28;20503;-70
2022/01/30 01:45:38;;;;;;;19.07;3.50;;;6.90;1.00;;;;;;5116074;28;20463;-69
2022/01/30 01:48:10;;;;;;;14.93;3.13;;;6.80;1.00;;;;;;5116384;28;20480;-68
2022/01/30 01:50:39;;;;;;;19.43;3.20;;;6.80;1.00;;;;;;5115081;28;20464;-70
2022/01/30 01:53:08;;;;;;;18.40;3.33;;;6.80;1.00;;;;;;5114842;28;20984;-69
2022/01/30 01:55:36;;;;;;;16.70;3.13;;;6.90;1.00;;;;;;5115036;28;20489;-69
2022/01/30 01:58:04;;;;;;;11.40;3.07;;;6.80;1.00;;;;;;5114718;28;20457;-69
2022/01/30 02:00:31;;;;;;;10.73;3.00;;;6.70;1.00;;;;;;5115153;28;20456;-69
2022/01/30 02:02:58;;;;;;;13.47;3.80;;;6.70;62.70;;;;;;5114700;28;20463;-69
2022/01/30 02:05:27;;;;;;;10.63;2.87;;;6.70;99.90;;;;;;5114389;28;20459;-69
2022/01/30 02:08:24;;;;;;;12.77;3.00;;;6.60;1.00;;;;;;5114327;28;20503;-69
2022/01/30 02:10:57;;;;;;;14.33;3.30;;;6.40;1.00;;;;;;5114900;28;20460;-69
2022/01/30 02:13:50;;;;;;;16.17;2.57;;;6.20;91.90;;;;;;5114904;28;20494;-70
2022/01/30 02:24:51;;;;;;;17.17;3.10;;;5.80;1.00;;;;;;5114893;28;20604;-70
2022/01/30 02:27:21;;;;;;;15.90;3.60;;;5.80;1.00;;;;;;5115374;28;20442;-70
2022/01/30 02:29:49;;;;;;;16.07;3.30;;;5.80;99.90;;;;;;5115171;28;20485;-70
2022/01/30 02:32:16;;;;;;;12.23;3.73;;;6.00;99.90;;;;;;5116438;28;20449;-70
2022/01/30 02:34:43;;;;;;;9.57;2.83;;;6.10;17.30;;;;;;5119138;28;20535;-70
2022/01/30 02:37:11;;;;;;;9.83;2.90;;;6.20;1.00;;;;;;5118931;28;20492;-70
2022/01/30 02:39:38;;;;;;;11.17;2.87;;;6.40;1.00;;;;;;5118752;27;21040;-70
2022/01/30 02:42:07;;;;;;;14.43;2.90;;;6.50;99.90;;;;;;5118995;28;20456;-69
2022/01/30 02:44:39;;;;;;;11.47;3.17;;;6.60;15.70;;;;;;5119317;28;20456;-70
2022/01/30 02:47:08;;;;;;;7.20;2.37;;;6.60;1.00;;;;;;5118771;28;20541;-70
2022/01/30 02:49:57;;;;;;;20.30;3.33;;;6.60;1.00;;;;;;5119316;28;20839;-70
2022/01/30 02:52:23;;;;;;;17.90;3.37;;;6.60;1.00;;;;;;5118847;28;20491;-70
2022/01/30 02:54:52;;;;;;;11.53;2.83;;;6.60;1.00;;;;;;5118601;28;20862;-69
2022/01/30 02:57:20;;;;;;;16.03;3.20;;;6.60;1.00;;;;;;5118504;28;20782;-69
2022/01/30 02:59:46;;;;;;;15.13;3.50;;;6.60;1.00;;;;;;5118617;28;20490;-69
2022/01/30 03:02:13;;;;;;;13.40;3.23;;;6.60;99.90;;;;;;5118709;28;20457;-69
2022/01/30 03:04:40;;;;;;;15.97;3.40;;;6.60;99.90;;;;;;5119046;28;20516;-69
2022/01/30 03:07:07;;;;;;;10.80;2.40;;;6.60;99.90;;;;;;5119167;28;20470;-69
2022/01/30 03:09:33;;;;;;;16.23;3.77;;;6.60;1.00;;;;;;5119123;27;20453;-69
2022/01/30 03:12:00;;;;;;;17.43;2.77;;;6.60;1.00;;;;;;5118978;28;20475;-68
2022/01/30 03:14:28;;;;;;;8.53;3.07;;;6.60;99.90;;;;;;5118742;28;20517;-69
2022/01/30 03:16:55;;;;;;;13.33;3.27;;;6.60;99.90;;;;;;5118366;28;20460;-69
2022/01/30 03:19:21;;;;;;;15.90;3.33;;;6.60;99.90;;;;;;5117982;28;20475;-69
2022/01/30 03:21:48;;;;;;;24.57;3.57;;;6.60;99.90;;;;;;5117905;28;20739;-69
2022/01/30 03:24:15;;;;;;;10.93;2.47;;;6.60;99.90;;;;;;5117940;28;20472;-70
2022/01/30 03:26:42;;;;;;;11.40;3.07;;;6.60;99.90;;;;;;5117825;28;20951;-69
2022/01/30 03:29:10;;;;;;;13.37;2.30;;;6.50;99.90;;;;;;5117684;28;20456;-70
2022/01/30 03:31:40;;;;;;;16.60;3.90;;;6.50;99.90;;;;;;5117390;28;20909;-70
2022/01/30 03:34:09;;;;;;;11.90;3.47;;;6.40;99.90;;;;;;5117606;28;20448;-69
2022/01/30 03:36:37;;;;;;;11.50;3.30;;;6.40;1.00;;;;;;5117742;28;20465;-71
2022/01/30 03:39:04;;;;;;;12.97;2.40;;;6.30;1.00;;;;;;5117655;27;20990;-69
2022/01/30 03:41:31;;;;;;;18.50;3.40;;;6.30;1.00;;;;;;5117206;28;20454;-70
2022/01/30 03:43:58;;;;;;;15.30;4.10;;;6.30;1.00;;;;;;5116902;28;20509;-69
2022/01/30 03:46:25;;;;;;;9.07;3.33;;;6.20;1.00;;;;;;5117509;27;20495;-69
2022/01/30 03:48:53;;;;;;;10.87;3.37;;;6.20;1.00;;;;;;5117591;28;20436;-70
2022/01/30 03:51:20;;;;;;;12.00;2.90;;;6.20;1.00;;;;;;5117350;28;20471;-70
2022/01/30 03:53:47;;;;;;;15.63;3.03;;;6.20;1.00;;;;;;5117277;28;20445;-69
2022/01/30 03:56:13;;;;;;;8.83;3.10;;;6.20;1.00;;;;;;5117584;27;20457;-70
2022/01/30 03:58:40;;;;;;;18.27;3.17;;;6.20;1.00;;;;;;5117573;28;20460;-68
2022/01/30 04:01:07;;;;;;;13.70;3.30;;;6.20;1.00;;;;;;5117224;27;20467;-69
2022/01/30 04:03:36;;;;;;;20.30;3.40;;;6.30;1.00;;;;;;5117396;28;20475;-69
2022/01/30 04:06:04;;;;;;;9.67;3.47;;;6.20;1.00;;;;;;5117480;28;20912;-69
2022/01/30 04:08:31;;;;;;;10.80;3.33;;;6.20;1.00;;;;;;5117510;28;20535;-69
2022/01/30 04:10:58;;;;;;;10.33;2.90;;;6.20;99.90;;;;;;5117652;27;20452;-69
2022/01/30 04:13:25;;;;;;;12.93;3.70;;;6.20;1.00;;;;;;5118385;28;20584;-69
2022/01/30 04:15:52;;;;;;;11.17;2.83;;;6.10;1.00;;;;;;5120208;28;20456;-69
2022/01/30 04:18:19;;;;;;;10.07;2.70;;;6.00;1.00;;;;;;5120847;28;20921;-69
2022/01/30 04:20:47;;;;;;;14.77;3.93;;;5.90;1.00;;;;;;5118934;28;20983;-70
2022/01/30 04:23:15;;;;;;;14.40;3.17;;;5.80;99.90;;;;;;5117670;28;20460;-69
2022/01/30 04:25:42;;;;;;;13.47;3.23;;;5.60;1.00;;;;;;5116945;28;20448;-69
2022/01/30 04:28:10;;;;;;;17.77;3.20;;;5.50;1.00;;;;;;5116947;28;20452;-69
2022/01/30 04:30:37;;;;;;;18.07;3.40;;;5.50;99.90;;;;;;5118497;28;20479;-69
2022/01/30 04:33:04;;;;;;;9.77;2.97;;;5.60;99.90;;;;;;5117087;28;20456;-69
2022/01/30 04:35:32;;;;;;;12.40;3.23;;;5.60;18.90;;;;;;5117572;28;20464;-69
2022/01/30 04:38:07;;;;;;;6.90;2.70;;;5.60;1.00;;;;;;5117214;28;20456;-70
2022/01/30 04:41:00;;;;;;;11.33;3.53;;;5.70;99.90;;;;;;5117065;28;20464;-69
2022/01/30 04:52:25;;;;;;;7.03;2.40;;;5.80;99.90;;;;;;5103172;28;20778;-70
2022/01/30 04:57:48;;;;;;;10.83;2.80;;;5.90;1.00;;;;;;5116651;28;20429;-69
2022/01/30 05:00:31;;;;;;;10.47;3.87;;;5.90;1.00;;;;;;5117150;28;20468;-70
2022/01/30 05:03:06;;;;;;;12.70;3.57;;;5.90;99.90;;;;;;5118105;28;20436;-70
2022/01/30 05:05:55;;;;;;;20.33;3.50;;;5.90;99.90;;;;;;5117360;28;20440;-69
2022/01/30 05:08:23;;;;;;;6.53;2.20;;;5.90;99.90;;;;;;5118745;28;20468;-70
2022/01/30 05:10:50;;;;;;;12.23;2.80;;;5.90;1.00;;;;;;5120366;28;20453;-70
2022/01/30 05:13:21;;;;;;;13.97;2.50;;;5.80;99.90;;;;;;5116578;28;20457;-69
2022/01/30 05:15:48;;;;;;;12.40;3.97;;;5.80;99.90;;;;;;5116661;28;20444;-69
2022/01/30 05:18:19;;;;;;;19.07;2.80;;;5.70;1.00;;;;;;5116934;28;20505;-69
2022/01/30 05:20:47;;;;;;;7.83;2.17;;;5.60;1.00;;;;;;5117342;28;20483;-69
2022/01/30 05:23:15;;;;;;;13.87;3.17;;;5.60;99.90;;;;;;5118537;28;20452;-69
2022/01/30 05:25:42;;;;;;;13.53;3.47;;;5.50;51.00;;;;;;5119072;28;20456;-69
2022/01/30 05:28:09;;;;;;;12.87;3.57;;;5.50;1.00;;;;;;5119540;28;20778;-70
2022/01/30 05:30:38;;;;;;;8.73;2.60;;;5.60;99.90;;;;;;5119953;28;20464;-69
2022/01/30 05:33:05;;;;;;;15.63;3.37;;;5.70;1.00;;;;;;5121367;28;20517;-69
2022/01/30 05:35:33;;;;;;;11.97;2.97;;;5.70;1.00;;;;;;5119572;28;20758;-69
2022/01/30 05:41:06;;;;;;;15.53;3.67;;;5.90;99.90;;;;;;5109603;28;20525;-69
2022/01/30 05:43:34;;;;;;;12.80;2.83;;;5.90;99.90;;;;;;5119228;28;20456;-69
2022/01/30 05:46:11;;;;;;;14.33;3.00;;;6.00;1.00;;;;;;5116114;28;20587;-69
2022/01/30 05:48:38;;;;;;;17.33;2.87;;;6.00;1.00;;;;;;5116067;28;20441;-69
2022/01/30 05:51:05;;;;;;;14.77;3.97;;;6.00;1.00;;;;;;5116035;28;20776;-70
2022/01/30 05:53:32;;;;;;;13.43;3.07;;;5.90;1.00;;;;;;5115838;28;20456;-69
2022/01/30 05:55:59;;;;;;;15.73;3.73;;;5.90;1.00;;;;;;5115586;28;20463;-69
2022/01/30 05:58:26;;;;;;;16.70;5.00;;;5.90;1.00;;;;;;5115518;28;20842;-69
2022/01/30 06:00:52;;;;;;;12.37;3.23;;;5.90;1.00;;;;;;5115774;28;20496;-69
2022/01/30 06:03:21;;;;;;;12.00;3.00;;;5.90;1.00;;;;;;5115746;28;20850;-70
2022/01/30 06:05:49;;;;;;;10.83;2.93;;;5.90;1.00;;;;;;5115274;28;20448;-69
2022/01/30 06:08:27;;;;;;;12.03;2.73;;;5.90;1.00;;;;;;5115770;28;20460;-70
2022/01/30 06:10:54;;;;;;;11.03;3.10;;;6.00;99.90;;;;;;5115704;28;20451;-69
2022/01/30 06:13:21;;;;;;;14.10;4.13;;;6.00;99.90;;;;;;5115094;28;20467;-69
2022/01/30 06:15:47;;;;;;;15.13;3.67;;;6.00;99.90;;;;;;5115195;28;20475;-69
2022/01/30 06:18:14;;;;;;;16.50;3.80;;;6.00;99.90;;;;;;5115480;28;20468;-71
2022/01/30 06:20:42;;;;;;;13.80;3.50;;;6.10;85.20;;;;;;5115207;28;20487;-69
2022/01/30 06:23:08;;;;;;;15.30;3.00;;;6.10;40.00;;;;;;5114912;28;20457;-69
2022/01/30 06:25:35;;;;;;;14.77;3.07;;;6.10;1.00;;;;;;5115297;28;20464;-69
2022/01/30 06:28:02;;;;;;;19.33;4.30;;;6.10;41.40;;;;;;5114935;28;20928;-69
2022/01/30 06:30:29;;;;;;;14.23;3.10;;;6.10;1.00;;;;;;5115418;28;20764;-70
2022/01/30 06:32:55;;;;;;;14.70;3.77;;;6.10;99.90;;;;;;5114943;28;20816;-69
2022/01/30 06:35:22;;;;;;;12.77;2.90;;;6.00;99.90;;;;;;5115493;28;20457;-69
2022/01/30 06:37:50;;;;;;;8.57;2.80;;;6.00;99.90;;;;;;5115593;28;20916;-69
2022/01/30 06:40:17;;;;;;;12.70;3.73;;;6.00;99.90;;;;;;5115186;28;20537;-70
2022/01/30 06:42:43;;;;;;;12.00;3.20;;;6.00;99.90;;;;;;5114878;28;20514;-70
2022/01/30 06:45:10;;;;;;;12.10;2.90;;;6.00;1.00;;;;;;5115030;28;20464;-70
2022/01/30 06:47:41;;;;;;;11.50;2.90;;;6.10;1.00;;;;;;5114774;28;21009;-71
2022/01/30 06:50:09;;;;;;;7.43;3.07;;;6.10;1.00;;;;;;5114851;28;20452;-69
2022/01/30 06:52:35;;;;;;;8.73;2.40;;;6.10;1.00;;;;;;5115151;28;20464;-69
2022/01/30 06:55:04;;;;;;;14.70;2.80;;;6.10;1.00;;;;;;5115042;28;20513;-69
2022/01/30 06:57:31;;;;;;;15.00;3.13;;;6.20;1.00;;;;;;5114535;28;20928;-70
2022/01/30 06:59:58;;;;;;;16.77;3.63;;;6.20;1.00;;;;;;5114948;28;20519;-69
2022/01/30 07:02:25;;;;;;;15.33;3.20;;;6.20;1.00;;;;;;5115148;28;20453;-69
2022/01/30 07:04:51;;;;;;;11.10;3.40;;;6.30;1.00;;;;;;5114524;28;20901;-69
2022/01/30 07:07:18;;;;;;;16.93;3.73;;;6.30;1.00;;;;;;5115155;28;20461;-69
2022/01/30 07:09:45;;;;;;;14.20;3.90;;;6.40;1.00;;;;;;5114816;28;20462;-69
2022/01/30 07:12:13;;;;;;;11.80;2.70;;;6.40;1.00;;;;;;5115214;28;20463;-70
2022/01/30 07:14:40;;;;;;;12.07;2.83;;;6.40;1.00;;;;;;5114982;28;20483;-70
2022/01/30 07:17:07;;;;;;;19.20;3.57;;;6.50;1.00;;;;;;5115035;28;20456;-71
2022/01/30 07:19:33;;;;;;;10.93;3.47;;;6.50;1.00;;;;;;5116656;28;20463;-69
2022/01/30 07:22:00;;;;;;;14.30;3.60;;;6.50;1.00;;;;;;5118917;27;20456;-70
2022/01/30 07:24:27;;;;;;;12.00;3.07;;;6.50;1.00;;;;;;5119122;28;20468;-70
2022/01/30 07:26:54;;;;;;;15.80;3.53;;;6.50;1.00;;;;;;5119748;28;20448;-70
2022/01/30 07:29:22;;;;;;;18.10;4.20;;;6.50;99.90;;;;;;5120500;27;20449;-70
2022/01/30 07:31:48;;;;;;;10.70;2.83;;;6.50;99.90;;;;;;5120131;28;20448;-69
2022/01/30 07:34:15;;;;;;;14.00;3.23;;;6.60;99.90;;;;;;5120589;28;20756;-69
2022/01/30 07:36:43;;;;;;;14.33;3.40;;;6.60;99.90;;;;;;5118910;28;20457;-69
2022/01/30 07:39:12;;;;;;;10.73;2.67;;;6.60;99.90;;;;;;5119659;28;20457;-69
2022/01/30 07:41:39;;;;;;;12.13;2.70;;;6.60;99.90;;;;;;5119006;28;20472;-69
2022/01/30 07:44:06;;;;;;;19.70;3.10;;;6.60;99.90;;;;;;5118799;28;20456;-70
2022/01/30 07:46:35;;;;;;;14.17;3.00;;;6.60;99.90;;;;;;5118220;28;20515;-69
2022/01/30 07:49:02;;;;;;;12.47;3.20;;;6.60;99.90;;;;;;5118532;28;20490;-70
2022/01/30 07:51:28;;;;;;;13.33;3.47;;;6.60;99.90;;;;;;5116971;28;20478;-70
2022/01/30 07:53:55;;;;;;;16.93;3.57;;;6.60;99.90;;;;;;5118393;28;20464;-70
2022/01/30 07:56:23;;;;;;;12.63;2.67;;;6.60;99.90;;;;;;5117702;28;20464;-70
2022/01/30 07:58:50;;;;;;;12.57;3.40;;;6.60;99.90;;;;;;5117859;28;20547;-69
2022/01/30 08:01:17;;;;;;;13.30;3.50;;;6.60;99.90;;;;;;5116986;28;20476;-69
2022/01/30 08:03:45;;;;;;;11.77;3.40;;;6.60;99.90;;;;;;5117723;28;20452;-70
2022/01/30 08:06:11;;;;;;;11.67;2.80;;;6.60;99.90;;;;;;5117160;27;20460;-70
2022/01/30 08:08:38;;;;;;;16.20;3.07;;;6.60;99.90;;;;;;5117461;28;20452;-70
2022/01/30 08:11:05;;;;;;;12.40;2.97;;;6.60;99.90;;;;;;5117434;28;20521;-70
2022/01/30 08:13:31;;;;;;;12.40;3.17;;;6.70;99.90;;;;;;5117344;28;20448;-69
2022/01/30 08:15:58;;;;;;;14.47;2.63;;;6.70;99.90;;;;;;5116990;28;20509;-70
2022/01/30 08:18:25;;;;;;;12.20;3.07;;;6.70;99.90;;;;;;5117021;28;20456;-70
2022/01/30 08:20:54;;;;;;;8.87;3.10;;;6.70;99.90;;;;;;5117009;27;20483;-70
2022/01/30 08:23:22;;;;;;;14.47;3.73;;;6.70;99.90;;;;;;5117696;28;20545;-69
2022/01/30 08:25:49;;;;;;;16.53;3.50;;;6.70;99.90;;;;;;5121795;28;20483;-69
2022/01/30 08:28:16;;;;;;;12.47;3.10;;;6.70;99.90;;;;;;5120108;28;20457;-70
2022/01/30 08:30:43;;;;;;;14.10;3.60;;;6.70;99.90;;;;;;5116979;28;20452;-70
2022/01/30 08:33:09;;;;;;;10.60;3.13;;;6.70;99.90;;;;;;5116987;28;20464;-70
2022/01/30 08:35:37;;;;;;;15.53;3.90;;;6.70;99.90;;;;;;5116788;28;20764;-69
2022/01/30 08:38:05;;;;;;;14.73;3.00;;;6.70;99.90;;;;;;5116759;27;20475;-70
2022/01/30 08:40:31;;;;;;;22.87;3.47;;;6.70;99.90;;;;;;5116756;28;20928;-69
2022/01/30 08:42:58;;;;;;;22.03;3.53;;;6.80;99.90;;;;;;5118103;28;20463;-69
2022/01/30 08:45:25;;;;;;;15.27;3.50;;;6.70;99.90;;;;;;5117314;28;20456;-69
2022/01/30 08:47:53;;;;;;;18.70;3.93;;;6.80;99.90;;;;;;5117402;28;20495;-69
2022/01/30 08:50:22;;;;;;;15.90;3.93;;;6.70;99.90;;;;;;5117817;28;20456;-70
2022/01/30 08:52:50;;;;;;;17.17;3.60;;;6.80;99.90;;;;;;5117432;28;20453;-70
2022/01/30 08:55:20;;;;;;;13.50;3.30;;;6.80;99.90;;;;;;5116637;28;20460;-70
2022/01/30 08:57:47;;;;;;;14.40;2.63;;;6.70;99.90;;;;;;5117775;27;20445;-70
2022/01/30 09:00:17;;;;;;;12.37;3.47;;;6.80;99.90;;;;;;5116745;28;20452;-70
2022/01/30 09:02:44;;;;;;;21.47;3.67;;;6.80;99.90;;;;;;5116285;28;20570;-70
2022/01/30 09:05:12;;;;;;;16.37;3.90;;;6.80;99.90;;;;;;5116270;28;20925;-70
2022/01/30 09:07:39;;;;;;;17.97;2.77;;;6.90;99.90;;;;;;5116031;28;20452;-70
2022/01/30 09:10:08;;;;;;;8.20;2.37;;;6.90;99.90;;;;;;5116267;28;20484;-70
2022/01/30 09:12:37;;;;;;;13.73;4.83;;;6.90;99.90;;;;;;5116153;28;20463;-68
2022/01/30 09:15:04;;;;;;;17.67;3.87;;;6.90;99.90;;;;;;5116078;28;20464;-70
2022/01/30 09:17:31;;;;;;;17.77;3.80;;;6.90;99.90;;;;;;5116319;28;20464;-69
2022/01/30 09:19:57;;;;;;;20.83;3.57;;;7.00;99.90;;;;;;5116202;28;20786;-69
2022/01/30 09:22:24;;;;;;;12.63;3.50;;;7.00;99.90;;;;;;5116086;28;20480;-69
2022/01/30 09:24:51;;;;;;;18.97;3.50;;;7.00;99.90;;;;;;5116577;28;20456;-69
2022/01/30 09:27:18;;;;;;;10.03;3.23;;;7.00;99.90;;;;;;5116234;28;20756;-69
2022/01/30 09:29:46;;;;;;;17.53;3.23;;;7.10;99.90;;;;;;5116552;28;20483;-70
2022/01/30 09:32:14;;;;;;;10.27;3.10;;;7.00;99.90;;;;;;5116404;28;20452;-69
2022/01/30 09:34:40;;;;;;;14.50;3.63;;;7.00;99.90;;;;;;5116139;28;20452;-70
2022/01/30 09:37:08;;;;;;;17.47;4.00;;;7.00;99.90;;;;;;5116161;28;20521;-70
2022/01/30 09:39:35;;;;;;;16.03;3.23;;;7.00;99.90;;;;;;5116067;28;20456;-70
2022/01/30 09:42:02;;;;;;;14.13;2.70;;;7.10;99.90;;;;;;5115305;28;20472;-70
2022/01/30 09:44:30;;;;;;;15.67;4.13;;;7.10;99.90;;;;;;5115922;28;20456;-70
2022/01/30 09:46:58;;;;;;;9.07;3.40;;;7.10;99.90;;;;;;5115109;28;20818;-70
2022/01/30 09:49:26;;;;;;;17.87;3.30;;;7.10;99.90;;;;;;5115539;28;20464;-70
2022/01/30 09:51:53;;;;;;;12.03;3.87;;;7.10;99.90;;;;;;5115471;28;20452;-71
2022/01/30 09:54:20;;;;;;;16.23;5.00;;;7.10;99.90;;;;;;5115772;28;20783;-71
2022/01/30 09:56:47;;;;;;;13.90;3.00;;;7.10;99.90;;;;;;5115288;28;20912;-69
2022/01/30 09:59:14;;;;;;;13.50;3.97;;;7.10;99.90;;;;;;5115183;28;20909;-70
2022/01/30 10:01:41;;;;;;;12.10;3.40;;;7.10;99.90;;;;;;5115076;28;20476;-70
2022/01/30 10:04:09;;;;;;;10.77;2.87;;;7.10;99.90;;;;;;5115012;28;20459;-70
2022/01/30 10:06:53;;;;;;;14.60;3.30;;;7.10;99.90;;;;;;5115156;28;20766;-69
2022/01/30 10:09:25;;;;;;;16.13;4.00;;;7.10;99.90;;;;;;5115173;28;20537;-70
2022/01/30 10:12:01;;;;;;;14.37;3.33;;;7.10;99.90;;;;;;5115045;28;20825;-69
2022/01/30 10:14:28;;;;;;;11.33;2.90;;;7.20;99.90;;;;;;5115358;28;20769;-70
2022/01/30 10:16:55;;;;;;;17.40;4.67;;;7.20;99.90;;;;;;5115692;28;20471;-70
2022/01/30 10:19:24;;;;;;;21.23;4.97;;;7.10;99.90;;;;;;5114701;28;20924;-70
2022/01/30 10:22:04;;;;;;;15.97;3.60;;;7.10;99.90;;;;;;5115154;28;20480;-71
2022/01/30 10:24:31;;;;;;;22.50;3.93;;;7.10;99.90;;;;;;5114959;28;20787;-70
2022/01/30 10:27:02;;;;;;;13.53;3.33;;;7.10;99.90;;;;;;5115264;28;20556;-70
2022/01/30 10:29:30;;;;;;;14.80;3.30;;;7.10;99.90;;;;;;5114934;28;20501;-70
2022/01/30 10:32:05;;;;;;;17.33;3.67;;;7.20;99.90;;;;;;5115442;28;20474;-70
2022/01/30 10:34:33;;;;;;;13.97;3.90;;;7.20;99.90;;;;;;5114871;28;20447;-70
2022/01/30 10:37:18;;;;;;;19.10;3.93;;;7.20;99.90;;;;;;5114946;28;20896;-70
2022/01/30 10:40:02;;;;;;;23.50;3.70;;;7.20;99.90;;;;;;5115186;28;20432;-70
2022/01/30 10:42:33;;;;;;;17.37;4.60;;;7.20;99.90;;;;;;5114666;28;20475;-71
2022/01/30 10:45:01;;;;;;;25.83;4.80;;;7.10;99.90;;;;;;5115064;28;20460;-71
2022/01/30 10:47:29;;;;;;;20.60;4.33;;;7.20;99.90;;;;;;5115112;28;20481;-70
2022/01/30 10:49:58;;;;;;;18.80;3.87;;;7.20;99.90;;;;;;5115064;28;20496;-69
2022/01/30 10:52:25;;;;;;;24.53;5.13;;;7.20;99.90;;;;;;5115201;28;20456;-70
2022/01/30 10:54:52;;;;;;;21.00;4.50;;;7.20;99.90;;;;;;5118692;28;20456;-70
2022/01/30 10:57:18;;;;;;;23.93;5.00;;;7.30;99.90;;;;;;5119271;28;20564;-70
2022/01/30 10:59:53;;;;;;;22.93;4.07;;;7.30;99.90;;;;;;5118547;28;20826;-71
2022/01/30 11:02:22;;;;;;;18.57;4.23;;;7.30;99.90;;;;;;5119378;28;20460;-72
2022/01/30 11:04:50;;;;;;;20.33;4.77;;;7.30;99.90;;;;;;5118395;28;20460;-71
2022/01/30 11:07:27;;;;;;;18.90;4.13;;;7.30;99.90;;;;;;5118410;27;20456;-71
2022/01/30 11:10:03;;;;;;;16.17;3.87;;;7.30;99.90;;;;;;5118125;28;20486;-70
2022/01/30 11:12:38;;;;;;;21.00;4.73;;;7.30;99.90;;;;;;5118109;28;20436;-72
2022/01/30 11:15:19;;;;;;;26.30;5.47;;;7.30;99.90;;;;;;5118148;28;20437;-70
2022/01/30 11:17:46;;;;;;;12.80;3.77;;;7.30;99.90;;;;;;5118233;28;20440;-71
2022/01/30 11:20:14;;;;;;;16.60;4.30;;;7.30;99.90;;;;;;5118337;28;20456;-70
2022/01/30 11:22:45;;;;;;;23.30;4.40;;;7.30;99.90;;;;;;5118506;28;21007;-69
2022/01/30 11:25:13;;;;;;;19.73;5.50;;;7.30;99.90;;;;;;5118910;28;20511;-70
2022/01/30 11:27:43;;;;;;;15.63;4.67;;;7.30;99.90;;;;;;5118637;28;20916;-70
2022/01/30 11:30:11;;;;;;;14.63;3.97;;;7.20;99.90;;;;;;5118324;27;20886;-71
2022/01/30 11:32:40;;;;;;;27.33;5.03;;;7.20;99.90;;;;;;5118523;28;20925;-70
2022/01/30 11:35:07;;;;;;;24.30;4.33;;;7.20;99.90;;;;;;5120077;28;20741;-71
2022/01/30 11:37:37;;;;;;;20.83;5.13;;;7.20;99.90;;;;;;5119802;28;20452;-71
2022/01/30 11:40:13;;;;;;;27.77;5.10;;;7.20;99.90;;;;;;5118180;28;20480;-70
2022/01/30 11:42:44;;;;;;;21.10;4.77;;;7.20;99.90;;;;;;5118206;28;20971;-70
2022/01/30 11:45:24;;;;;;;19.73;4.83;;;7.20;99.90;;;;;;5117564;28;20484;-69
2022/01/30 11:47:55;;;;;;;30.27;4.90;;;7.20;99.90;;;;;;5117020;28;20484;-73
2022/01/30 11:50:25;;;;;;;20.10;4.87;;;7.30;99.90;;;;;;5118107;28;20839;-70
2022/01/30 11:52:57;;;;;;;24.90;5.90;;;7.40;99.90;;;;;;5117640;28;20921;-70
2022/01/30 11:55:43;;;;;;;19.80;4.40;;;7.30;99.90;;;;;;5117571;28;20437;-70
2022/01/30 11:58:55;;;;;;;17.80;4.90;;;7.30;99.90;;;;;;5117810;28;20442;-71
2022/01/30 12:01:41;;;;;;;19.33;4.53;;;7.40;99.90;;;;;;5104471;28;20479;-71
2022/01/30 12:04:13;;;;;;;17.33;4.93;;;7.40;99.90;;;;;;5117742;28;20889;-71
2022/01/30 12:06:44;;;;;;;25.30;5.70;;;7.50;99.90;;;;;;5117809;28;20460;-73
2022/01/30 12:09:26;;;;;;;19.40;5.00;;;7.50;99.90;;;;;;5117467;28;20491;-72
2022/01/30 12:11:56;;;;;;;15.10;4.47;;;7.60;99.90;;;;;;5118208;28;20444;-70
2022/01/30 12:14:54;;;;;;;22.17;5.20;;;7.50;99.90;;;;;;5117927;28;20762;-71
2022/01/30 12:17:57;;;;;;;16.43;5.10;;;7.50;99.90;;;;;;5116829;28;20437;-71
2022/01/30 12:20:24;;;;;;;25.17;4.80;;;7.40;99.90;;;;;;5116371;28;20892;-71
2022/01/30 12:22:51;;;;;;;17.40;4.73;;;7.40;99.90;;;;;;5116562;28;20480;-71
2022/01/30 12:25:35;;;;;;;33.63;4.93;;;7.30;99.90;;;;;;5116532;27;20486;-70
2022/01/30 12:28:08;;;;;;;19.73;3.83;;;7.30;99.90;;;;;;5116868;28;20539;-70
2022/01/30 12:30:53;;;;;;;24.60;4.70;;;7.40;99.90;;;;;;5116848;28;20489;-71
2022/01/30 12:33:47;;;;;;;22.80;6.13;;;7.40;99.90;;;;;;5116841;28;20460;-70
2022/01/30 12:36:17;;;;;;;28.80;6.13;;;7.50;99.90;;;;;;5117058;28;20437;-71
2022/01/30 12:38:44;;;;;;;22.47;6.23;;;7.50;99.90;;;;;;5117570;28;20486;-70
2022/01/30 12:41:19;;;;;;;19.07;4.73;;;7.50;99.90;;;;;;5116404;28;20467;-71
2022/01/30 12:43:53;;;;;;;20.60;4.70;;;7.50;99.90;;;;;;5116641;28;20444;-71
2022/01/30 12:46:20;;;;;;;20.43;5.17;;;7.50;99.90;;;;;;5116668;27;20956;-71
2022/01/30 12:49:10;;;;;;;27.97;5.20;;;7.50;99.90;;;;;;5116289;27;20452;-70
2022/01/30 12:51:38;;;;;;;17.10;4.20;;;7.50;99.90;;;;;;5116832;28;20528;-71
2022/01/30 12:54:07;;;;;;;22.67;5.03;;;7.60;99.90;;;;;;5116028;28;20463;-71
2022/01/30 12:56:35;;;;;;;16.90;4.97;;;7.60;99.90;;;;;;5116719;28;20467;-71
2022/01/30 12:59:08;;;;;;;22.93;5.50;;;7.60;99.90;;;;;;5116895;28;20556;-72
2022/01/30 13:01:39;;;;;;;26.53;5.57;;;7.70;99.90;;;;;;5116608;28;20451;-71
2022/01/30 13:04:10;;;;;;;21.27;5.17;;;7.60;99.90;;;;;;5116948;28;20447;-70
2022/01/30 13:06:39;;;;;;;22.00;4.77;;;7.70;99.90;;;;;;5116355;28;20873;-70
2022/01/30 13:09:08;;;;;;;20.90;4.93;;;7.60;99.90;;;;;;5116035;28;20456;-71
2022/01/30 13:11:36;;;;;;;13.23;4.40;;;7.60;99.90;;;;;;5116180;28;20453;-72
2022/01/30 13:14:07;;;;;;;28.00;5.30;;;7.60;99.90;;;;;;5116706;28;20850;-71
2022/01/30 13:16:37;;;;;;;24.63;5.27;;;7.70;99.90;;;;;;5115530;28;20770;-70
2022/01/30 13:19:08;;;;;;;21.17;4.40;;;7.70;99.90;;;;;;5096522;28;20768;-72
2022/01/30 13:21:36;;;;;;;18.60;5.07;;;7.80;99.90;;;;;;5096717;28;20449;-70
2022/01/30 13:24:04;;;;;;;21.73;4.60;;;7.90;99.90;;;;;;5098455;28;20468;-71
2022/01/30 13:26:44;;;;;;;20.73;5.10;;;7.90;99.90;;;;;;5099264;28;20457;-70
2022/01/30 13:29:18;;;;;;;30.90;6.17;;;7.90;99.90;;;;;;5100254;28;20473;-71
2022/01/30 13:31:51;;;;;;;23.70;4.30;;;8.00;98.60;;;;;;5099692;28;20880;-70
2022/01/30 13:34:21;;;;;;;18.90;5.17;;;8.00;91.00;;;;;;5099932;28;20437;-71
2022/01/30 13:36:54;;;;;;;19.40;5.00;;;7.90;90.50;;;;;;5098336;28;20442;-70